Juan de Fuca Strait - central strait: Past 24 Hour Conditions

 

La Perouse Bank - 46206

05:00 PM PDT 25 October 2014Buoy position: 48.83N 126.0W
This table is a summary of hourly weather conditions for the past 24 hours.
Date / Time
(PDT)
Wind(knots) Wave height(m) Wave period(s) Pressure(kPa) Air tempC) Water tempC)
25 October 2014
17:00 WNW 25 gust 33 3.1 12.0 99.3 11 15
16:00 WNW 23 gust 29 3.0 13.0 99.2 11 15
15:00 W 18 gust 21 3.0 13.0 99.2 11 15
14:00 NW 16 gust 19 3.0 12.0 99.2 11 15
13:00 NW 16 gust 23 3.3 9.0 99.2 12 15
12:00 NW 14 gust 18 3.7 9.0 99.2 12 15
11:00 N/A N/A N/A N/A N/A N/A
10:00 SSE 27 gust 33 2.8 11.0 99.2 14 15
9:00 E 19 gust 33 2.3 11.0 99.4 11 15
8:00 NNE 18 gust 21 2.2 13.0 99.4 10 15
7:00 NNE 19 gust 23 2.2 12.0 99.6 10 15
6:00 NNE 19 gust 23 1.9 12.0 99.7 11 15
5:00 NE 19 gust 23 2.0 13.0 99.9 11 15
4:00 NE 16 gust 19 2.0 13.0 100.1 12 15
3:00 ENE 14 gust 18 2.0 13.0 100.2 12 15
2:00 ENE 14 gust 19 2.0 13.0 100.4 13 15
1:00 E 12 gust 16 2.2 13.0 100.5 13 15
0:00 E 14 gust 18 1.9 14.0 100.6 13 15
24 October 2014
23:00 E 14 gust 18 2.1 14.0 100.7 13 15
22:00 E 12 gust 16 2.0 13.0 100.9 13 15
21:00 E 12 gust 16 2.4 11.0 101.0 13 15
20:00 E 12 gust 16 2.6 13.0 101.1 13 15
19:00 ESE 14 gust 18 3.0 12.0 101.2 13 15
18:00 ESE 16 gust 19 2.8 12.0 101.2 13 15
17:00 E 16 gust 19 2.8 12.0 101.3 13 15
 
Map of Pacific - South Coast marine weather areas Tsawwassen Ferry Terminal South Nomad - 46036 Sentry Shoal - 46131 South Brooks - 46132 Halibut Bank - 46146 South Moresby - 46147 South Hecate Strait - 46185 West Sea Otter - 46204 La Perouse Bank - 46206 East Dellwood - 46207 Discovery Island Esquimalt Harbour Kelp Reefs Malahat Race Rocks Lightstation Saturna Island Sheringham Point University of Victoria Victoria Gonzales Victoria Int'l Airport Ballenas Islands Campbell River Airport Comox Airport Entrance Island Fanny Island Nanaimo Airport Port Hardy Airport Sisters Islets Estevan Point Sartine Island Solander Island Tofino Airport Grief Point Powell River Airport Sechelt Cape St.James Bella Bella Airport Bella Coola Airport Cathedral Point Herbert Island Point Atkinson Sand Heads Lightstation Vancouver Harbour Vancouver Int'l Airport West Vancouver Port Alberni Howe Sound - Pam Rocks Squamish Airport